createdAt,value
2017-05-30T00:01:03.245Z,26.60
2017-05-30T00:03:29.790Z,25.00
2017-05-30T00:05:56.138Z,28.30
2017-05-30T00:08:22.534Z,30.66
2017-05-30T00:10:48.874Z,27.46
2017-05-30T00:13:15.246Z,29.20
2017-05-30T00:15:41.589Z,29.44
2017-05-30T00:18:08.586Z,28.22
2017-05-30T00:20:35.104Z,30.28
2017-05-30T00:23:01.933Z,32.38
2017-05-30T00:25:29.021Z,32.80
2017-05-30T00:27:55.585Z,33.06
2017-05-30T00:30:21.992Z,32.14
2017-05-30T00:32:48.575Z,29.16
2017-05-30T00:35:14.954Z,34.30
2017-05-30T00:37:41.302Z,31.78
2017-05-30T00:40:07.651Z,33.18
2017-05-30T00:42:34.077Z,30.34
2017-05-30T00:45:00.445Z,33.88
2017-05-30T00:47:26.787Z,34.70
2017-05-30T00:49:53.174Z,31.98
2017-05-30T00:52:19.528Z,32.82
2017-05-30T00:54:45.872Z,35.00
2017-05-30T00:57:12.248Z,36.26
2017-05-30T00:59:38.601Z,35.60
2017-05-30T01:02:04.957Z,34.20
2017-05-30T01:04:31.299Z,36.56
2017-05-30T01:06:57.639Z,35.46
2017-05-30T01:09:23.972Z,35.94
2017-05-30T01:11:50.337Z,34.66
2017-05-30T01:14:16.676Z,34.08
2017-05-30T01:16:43.008Z,33.94
2017-05-30T01:19:09.405Z,33.62
2017-05-30T01:21:35.769Z,31.02
2017-05-30T01:24:02.132Z,30.68
2017-05-30T01:26:28.486Z,31.38
2017-05-30T01:28:54.810Z,29.52
2017-05-30T01:31:21.675Z,32.02
2017-05-30T01:33:53.205Z,32.94
2017-05-30T01:36:19.641Z,32.72
2017-05-30T01:38:49.064Z,28.66
2017-05-30T01:41:15.668Z,32.06
2017-05-30T01:43:47.610Z,30.54
2017-05-30T01:46:14.068Z,31.44
2017-05-30T01:48:45.966Z,35.64
2017-05-30T01:51:12.556Z,34.72
2017-05-30T01:53:39.327Z,39.10
2017-05-30T01:56:05.683Z,41.24
2017-05-30T01:58:33.635Z,40.60
2017-05-30T02:01:01.109Z,35.06
2017-05-30T02:03:33.196Z,43.58
2017-05-30T02:06:04.799Z,50.64
2017-05-30T02:08:31.629Z,46.72
2017-05-30T02:10:58.073Z,52.84
2017-05-30T02:13:25.280Z,50.94
2017-05-30T02:15:56.961Z,49.92
2017-05-30T02:18:23.507Z,55.50
2017-05-30T02:20:49.943Z,59.96
2017-05-30T02:23:19.426Z,58.52
2017-05-30T02:25:45.955Z,58.58
2017-05-30T02:28:12.466Z,53.84
2017-05-30T02:30:45.764Z,63.98
2017-05-30T02:33:12.323Z,69.28
2017-05-30T02:35:39.113Z,66.80
2017-05-30T02:38:10.624Z,67.16
2017-05-30T02:40:42.126Z,69.80
2017-05-30T02:43:08.756Z,71.82
2017-05-30T02:45:40.207Z,64.56
2017-05-30T02:48:07.920Z,73.88
2017-05-30T02:50:40.787Z,72.78
2017-05-30T02:53:07.651Z,68.60
2017-05-30T02:55:34.428Z,61.02
2017-05-30T02:58:00.994Z,73.14
2017-05-30T03:00:27.516Z,68.12
2017-05-30T03:02:53.918Z,70.14
2017-05-30T03:05:23.398Z,69.54
2017-05-30T03:07:49.746Z,67.14
2017-05-30T03:10:16.565Z,69.42
2017-05-30T03:12:42.985Z,67.68
2017-05-30T03:15:12.813Z,70.00
2017-05-30T03:17:40.291Z,63.64
2017-05-30T03:20:11.963Z,60.94
2017-05-30T03:22:44.326Z,63.52
2017-05-30T03:25:10.814Z,59.94
2017-05-30T03:27:42.820Z,68.78
2017-05-30T03:30:09.635Z,63.82
2017-05-30T03:32:41.325Z,65.34
2017-05-30T03:35:08.121Z,70.54
2017-05-30T03:37:34.850Z,71.24
2017-05-30T03:40:06.741Z,74.86
2017-05-30T03:42:34.033Z,68.18
2017-05-30T03:45:00.436Z,72.22
2017-05-30T03:47:31.974Z,73.58
2017-05-30T03:49:58.681Z,76.04
2017-05-30T03:52:25.069Z,75.06
2017-05-30T03:54:54.705Z,73.00
2017-05-30T03:57:21.057Z,70.78
2017-05-30T03:59:48.396Z,71.10
2017-05-30T04:02:14.807Z,66.48
2017-05-30T04:04:46.514Z,72.60
2017-05-30T04:07:13.410Z,69.62
2017-05-30T04:09:45.050Z,72.34
2017-05-30T04:12:11.380Z,70.46
2017-05-30T04:14:43.094Z,70.20
2017-05-30T04:17:14.595Z,68.58
2017-05-30T04:19:41.568Z,66.28
2017-05-30T04:22:07.953Z,62.88
2017-05-30T04:24:35.270Z,61.86
2017-05-30T04:27:02.431Z,62.84
2017-05-30T04:29:28.907Z,60.92
2017-05-30T04:31:55.332Z,59.74
2017-05-30T04:34:29.613Z,57.06
2017-05-30T04:37:01.423Z,58.82
2017-05-30T04:39:27.932Z,54.60
2017-05-30T04:41:59.473Z,50.02
2017-05-30T04:44:25.834Z,54.16
2017-05-30T04:46:58.119Z,54.90
2017-05-30T04:49:24.869Z,42.42
2017-05-30T04:51:51.750Z,47.64
2017-05-30T04:54:23.114Z,44.98
2017-05-30T04:56:49.520Z,51.26
2017-05-30T04:59:15.966Z,49.12
2017-05-30T05:01:47.557Z,44.34
2017-05-30T05:04:20.086Z,49.70
2017-05-30T05:06:50.570Z,48.88
2017-05-30T05:09:16.995Z,41.44
2017-05-30T05:11:48.831Z,48.34
2017-05-30T05:14:20.482Z,44.34
2017-05-30T05:16:46.924Z,50.20
2017-05-30T05:19:16.247Z,44.30
2017-05-30T05:21:42.904Z,46.12
2017-05-30T05:24:09.404Z,42.30
2017-05-30T05:26:41.074Z,43.96
2017-05-30T05:29:07.936Z,41.80
2017-05-30T05:31:35.543Z,41.16
2017-05-30T05:34:07.255Z,40.96
2017-05-30T05:36:33.696Z,46.32
2017-05-30T05:39:03.468Z,42.68
2017-05-30T05:41:30.329Z,37.88
2017-05-30T05:43:57.714Z,36.06
2017-05-30T05:46:24.052Z,41.46
2017-05-30T05:48:50.376Z,39.76
2017-05-30T05:51:16.734Z,40.52
2017-05-30T05:53:43.092Z,38.82
2017-05-30T05:56:09.444Z,39.06
2017-05-30T05:58:35.773Z,36.52
2017-05-30T06:01:02.132Z,37.56
2017-05-30T06:03:28.498Z,39.18
2017-05-30T06:05:54.867Z,37.28
2017-05-30T06:08:21.219Z,36.70
2017-05-30T06:10:47.579Z,36.58
2017-05-30T06:13:13.944Z,33.16
2017-05-30T06:15:40.390Z,34.28
2017-05-30T06:18:06.740Z,33.02
2017-05-30T06:20:33.058Z,35.36
2017-05-30T06:22:59.399Z,37.12
2017-05-30T06:25:25.757Z,35.74
2017-05-30T06:27:52.162Z,33.86
2017-05-30T06:30:18.531Z,30.88
2017-05-30T06:32:44.882Z,31.04
2017-05-30T06:35:11.232Z,29.32
2017-05-30T06:37:37.649Z,28.90
2017-05-30T06:40:03.974Z,32.30
2017-05-30T06:42:30.356Z,29.54
2017-05-30T06:44:56.725Z,29.90
2017-05-30T06:47:23.059Z,30.00
2017-05-30T06:49:49.396Z,30.70
2017-05-30T06:52:15.812Z,34.42
2017-05-30T06:54:42.134Z,31.44
2017-05-30T06:57:08.495Z,30.68
2017-05-30T06:59:34.823Z,28.92
2017-05-30T07:02:01.171Z,28.56
2017-05-30T07:04:27.517Z,29.18
2017-05-30T07:06:53.881Z,26.98
2017-05-30T07:09:20.214Z,28.80
2017-05-30T07:11:46.553Z,28.04
2017-05-30T07:14:12.926Z,26.82
2017-05-30T07:16:39.308Z,24.66
2017-05-30T07:19:05.675Z,25.36
2017-05-30T07:21:32.029Z,23.90
2017-05-30T07:23:58.378Z,24.38
2017-05-30T07:26:24.719Z,23.00
2017-05-30T07:28:51.076Z,22.84
2017-05-30T07:31:17.421Z,21.52
2017-05-30T07:33:43.769Z,20.36
2017-05-30T07:36:10.171Z,18.38
2017-05-30T07:38:36.510Z,20.42
2017-05-30T07:41:02.872Z,18.40
2017-05-30T07:43:29.225Z,17.52
2017-05-30T07:45:55.574Z,18.04
2017-05-30T07:48:21.919Z,20.02
2017-05-30T07:50:48.259Z,17.80
2017-05-30T07:53:14.599Z,20.44
2017-05-30T07:55:40.995Z,19.56
2017-05-30T07:58:07.398Z,19.56
2017-05-30T08:00:33.793Z,17.62
2017-05-30T08:03:00.189Z,15.92
2017-05-30T08:05:26.597Z,21.18
2017-05-30T08:07:53.044Z,21.48
2017-05-30T08:10:19.406Z,16.92
2017-05-30T08:12:45.787Z,20.32
2017-05-30T08:15:12.116Z,16.66
2017-05-30T08:17:38.542Z,18.52
2017-05-30T08:20:04.893Z,17.58
2017-05-30T08:22:31.249Z,15.50
2017-05-30T08:24:57.613Z,15.42
2017-05-30T08:27:24.019Z,16.02
2017-05-30T08:29:50.375Z,15.92
2017-05-30T08:32:16.729Z,14.88
2017-05-30T08:34:58.007Z,18.62
2017-05-30T08:37:24.365Z,14.04
2017-05-30T08:39:50.688Z,16.80
2017-05-30T08:42:17.032Z,15.60
2017-05-30T08:44:43.363Z,15.18
2017-05-30T08:47:09.725Z,14.52
2017-05-30T08:49:36.101Z,9.50
2017-05-30T08:52:02.462Z,8.76
2017-05-30T08:54:28.814Z,10.98
2017-05-30T08:56:55.169Z,9.88
2017-05-30T08:59:21.514Z,12.02
2017-05-30T09:01:47.839Z,11.98
2017-05-30T09:04:14.172Z,12.60
2017-05-30T09:06:40.510Z,12.50
2017-05-30T09:09:06.894Z,14.84
2017-05-30T09:11:33.273Z,13.26
2017-05-30T09:13:59.660Z,16.08
2017-05-30T09:16:25.998Z,18.80
2017-05-30T09:18:52.385Z,17.28
2017-05-30T09:21:18.747Z,16.36
2017-05-30T09:23:45.167Z,14.94
2017-05-30T09:26:11.538Z,13.26
2017-05-30T09:28:37.927Z,16.12
2017-05-30T09:31:04.473Z,15.44
2017-05-30T09:33:30.878Z,18.94
2017-05-30T09:35:57.904Z,20.42
2017-05-30T09:38:24.266Z,18.24
2017-05-30T09:40:50.975Z,19.84
2017-05-30T09:43:17.417Z,18.62
2017-05-30T09:45:43.766Z,19.14
2017-05-30T09:48:10.129Z,20.46
2017-05-30T09:50:36.443Z,19.96
2017-05-30T09:53:02.782Z,21.80
2017-05-30T09:55:29.114Z,20.98
2017-05-30T09:57:55.464Z,22.98
2017-05-30T10:00:21.801Z,24.16
2017-05-30T10:02:48.127Z,24.18
2017-05-30T10:05:14.483Z,23.36
2017-05-30T10:07:40.857Z,21.18
2017-05-30T10:10:07.233Z,22.42
2017-05-30T10:12:33.549Z,21.78
2017-05-30T10:14:59.871Z,19.88
2017-05-30T10:17:26.230Z,19.26
2017-05-30T10:19:52.549Z,19.42
2017-05-30T10:22:18.893Z,20.82
2017-05-30T10:24:45.230Z,21.42
2017-05-30T10:27:11.559Z,18.80
2017-05-30T10:29:37.859Z,18.34
2017-05-30T10:32:04.244Z,20.36
2017-05-30T10:34:30.567Z,21.32
2017-05-30T10:36:56.936Z,20.92
2017-05-30T10:39:23.330Z,17.20
2017-05-30T10:41:49.648Z,17.78
2017-05-30T10:44:16.052Z,16.70
2017-05-30T10:46:42.890Z,17.06
2017-05-30T10:49:09.275Z,19.26
2017-05-30T10:51:35.625Z,15.50
2017-05-30T10:54:01.977Z,16.64
2017-05-30T10:56:28.319Z,15.90
2017-05-30T10:58:54.692Z,18.18
2017-05-30T11:01:21.027Z,16.50
2017-05-30T11:03:47.399Z,18.56
2017-05-30T11:06:13.707Z,17.00
2017-05-30T11:08:40.048Z,22.10
2017-05-30T11:11:06.400Z,28.74
2017-05-30T11:13:32.746Z,28.62
2017-05-30T11:15:59.062Z,25.76
2017-05-30T11:18:25.410Z,24.20
2017-05-30T11:20:51.736Z,24.48
2017-05-30T11:23:18.114Z,25.26
2017-05-30T11:25:44.447Z,19.84
2017-05-30T11:28:10.758Z,16.96
2017-05-30T11:30:37.090Z,20.92
2017-05-30T11:33:03.607Z,23.32
2017-05-30T11:35:29.943Z,23.34
2017-05-30T11:37:56.273Z,23.98
2017-05-30T11:40:22.629Z,22.88
2017-05-30T11:42:48.932Z,23.08
2017-05-30T11:45:15.732Z,18.92
2017-05-30T11:47:42.079Z,18.12
2017-05-30T11:50:08.463Z,18.64
2017-05-30T11:52:34.796Z,17.94
2017-05-30T11:55:01.127Z,17.24
2017-05-30T11:57:27.463Z,16.48
2017-05-30T11:59:53.945Z,16.90
2017-05-30T12:02:20.289Z,14.10
2017-05-30T12:04:46.655Z,14.00
2017-05-30T12:07:13.022Z,14.00
2017-05-30T12:09:39.379Z,12.48
2017-05-30T12:12:05.765Z,15.36
2017-05-30T12:14:32.119Z,17.80
2017-05-30T12:16:58.460Z,13.52
2017-05-30T12:19:24.805Z,17.10
2017-05-30T12:21:51.123Z,17.36
2017-05-30T12:24:17.449Z,17.38
2017-05-30T12:26:43.808Z,15.68
2017-05-30T12:29:10.169Z,14.26
2017-05-30T12:31:36.520Z,14.24
2017-05-30T12:34:02.873Z,13.88
2017-05-30T12:36:29.197Z,13.08
2017-05-30T12:38:55.546Z,13.90
2017-05-30T12:41:21.891Z,14.34
2017-05-30T12:43:48.249Z,14.28
2017-05-30T12:46:14.605Z,16.48
2017-05-30T12:48:40.955Z,18.68
2017-05-30T12:51:07.278Z,15.12
2017-05-30T12:53:33.626Z,14.44
2017-05-30T12:56:00.030Z,15.16
2017-05-30T12:58:26.379Z,16.38
2017-05-30T13:00:52.743Z,15.84
2017-05-30T13:03:19.101Z,16.64
2017-05-30T13:05:45.464Z,18.06
2017-05-30T13:08:11.803Z,15.88
2017-05-30T13:10:38.159Z,17.32
2017-05-30T13:13:04.491Z,17.60
2017-05-30T13:15:30.823Z,18.00
2017-05-30T13:17:57.159Z,22.94
2017-05-30T13:20:23.522Z,18.78
2017-05-30T13:22:49.877Z,20.74
2017-05-30T13:25:16.221Z,21.96
2017-05-30T13:27:42.563Z,23.68
2017-05-30T13:30:08.908Z,23.26
2017-05-30T13:32:35.293Z,23.56
2017-05-30T13:35:01.644Z,24.20
2017-05-30T13:37:27.979Z,23.90
2017-05-30T13:39:54.311Z,25.46
2017-05-30T13:42:20.649Z,24.90
2017-05-30T13:44:46.981Z,25.48
2017-05-30T13:47:13.288Z,28.82
2017-05-30T13:49:39.620Z,28.46
2017-05-30T13:52:05.970Z,26.00
2017-05-30T13:54:32.279Z,30.56
2017-05-30T13:56:58.660Z,30.98
2017-05-30T13:59:25.013Z,32.12
2017-05-30T14:01:51.380Z,33.64
2017-05-30T14:04:17.744Z,30.60
2017-05-30T14:06:44.115Z,33.58
2017-05-30T14:09:10.460Z,30.14
2017-05-30T14:11:36.798Z,31.34
2017-05-30T14:14:03.158Z,32.50
2017-05-30T14:16:29.467Z,28.28
2017-05-30T14:18:55.797Z,29.50
2017-05-30T14:21:22.141Z,27.56
2017-05-30T14:23:48.475Z,30.18
2017-05-30T14:26:14.845Z,30.42
2017-05-30T14:28:41.191Z,27.78
2017-05-30T14:31:07.511Z,28.24
2017-05-30T14:33:33.850Z,27.20
2017-05-30T14:36:00.191Z,27.72
2017-05-30T14:38:26.550Z,20.50
2017-05-30T14:40:52.909Z,19.44
2017-05-30T14:43:19.270Z,19.64
2017-05-30T14:45:45.580Z,14.44
2017-05-30T14:48:11.912Z,12.52
2017-05-30T14:50:38.257Z,12.54
2017-05-30T14:53:04.581Z,9.96
2017-05-30T14:55:30.924Z,9.02
2017-05-30T14:57:57.245Z,7.88
2017-05-30T15:00:23.599Z,8.20
2017-05-30T15:02:49.938Z,8.12
2017-05-30T15:05:16.293Z,7.20
2017-05-30T15:07:42.647Z,7.22
2017-05-30T15:10:09.030Z,7.20
2017-05-30T15:12:35.958Z,7.20
2017-05-30T15:15:02.330Z,6.30
2017-05-30T15:17:28.661Z,6.28
2017-05-30T15:19:55.071Z,6.06
2017-05-30T15:22:21.401Z,6.22
2017-05-30T15:24:47.734Z,8.48
2017-05-30T15:27:14.180Z,5.60
2017-05-30T15:29:40.563Z,6.32
2017-05-30T15:32:06.901Z,5.22
2017-05-30T15:34:33.241Z,6.42
2017-05-30T15:36:59.584Z,5.12
2017-05-30T15:39:26.447Z,4.74
2017-05-30T15:41:53.963Z,7.32
2017-05-30T15:44:20.348Z,4.42
2017-05-30T15:46:46.869Z,4.16
2017-05-30T15:49:13.548Z,4.40
2017-05-30T15:51:40.303Z,5.98
2017-05-30T15:54:06.854Z,6.16
2017-05-30T15:56:33.678Z,4.24
2017-05-30T15:59:00.231Z,3.12
2017-05-30T16:01:27.107Z,5.30
2017-05-30T16:03:53.467Z,4.38
2017-05-30T16:06:21.322Z,3.80
2017-05-30T16:08:48.529Z,4.62
2017-05-30T16:11:15.680Z,3.78
2017-05-30T16:13:42.867Z,3.52
2017-05-30T16:16:09.878Z,3.64
2017-05-30T16:18:36.963Z,6.02
2017-05-30T16:21:03.369Z,3.26
2017-05-30T16:23:30.552Z,5.54
2017-05-30T16:25:56.941Z,3.50
2017-05-30T16:28:23.980Z,4.10
2017-05-30T16:30:50.393Z,6.98
2017-05-30T16:33:17.493Z,4.86
2017-05-30T16:35:44.476Z,3.72
2017-05-30T16:38:10.871Z,4.10
2017-05-30T16:40:37.657Z,4.50
2017-05-30T16:43:04.368Z,4.70
2017-05-30T16:45:30.895Z,3.78
2017-05-30T16:47:57.911Z,4.04
2017-05-30T16:50:26.337Z,3.10
2017-05-30T16:52:52.907Z,6.74
2017-05-30T16:55:19.739Z,3.70
2017-05-30T16:57:46.211Z,3.54
2017-05-30T17:00:12.687Z,2.90
2017-05-30T17:02:39.019Z,2.84
2017-05-30T17:05:05.384Z,4.10
2017-05-30T17:07:31.798Z,5.28
2017-05-30T17:09:58.143Z,5.00
2017-05-30T17:12:24.503Z,5.58
2017-05-30T17:14:50.852Z,4.46
2017-05-30T17:17:17.292Z,3.34
2017-05-30T17:19:43.655Z,3.48
2017-05-30T17:22:09.993Z,3.80
2017-05-30T17:24:36.350Z,3.64
2017-05-30T17:27:02.711Z,4.72
2017-05-30T17:29:29.351Z,5.56
2017-05-30T17:31:55.899Z,4.28
2017-05-30T17:34:22.780Z,4.58
2017-05-30T17:36:49.179Z,3.86
2017-05-30T17:39:15.576Z,4.66
2017-05-30T17:41:42.691Z,6.28
2017-05-30T17:44:09.044Z,9.74
2017-05-30T17:46:35.875Z,8.42
2017-05-30T17:49:02.252Z,7.92
2017-05-30T17:51:29.449Z,9.36
2017-05-30T17:53:55.858Z,9.70
2017-05-30T17:56:22.194Z,8.76
2017-05-30T17:58:48.519Z,11.96
2017-05-30T18:01:14.876Z,12.54
2017-05-30T18:03:41.203Z,12.53
2017-05-30T18:06:07.495Z,13.84
2017-05-30T18:08:33.830Z,15.50
2017-05-30T18:11:00.159Z,15.26
2017-05-30T18:13:26.521Z,18.86
2017-05-30T18:15:52.915Z,17.34
2017-05-30T18:18:19.978Z,18.70
2017-05-30T18:20:46.869Z,19.10
2017-05-30T18:23:14.105Z,18.96
2017-05-30T18:25:41.224Z,18.60
2017-05-30T18:28:07.735Z,17.08
2017-05-30T18:30:34.791Z,19.92
2017-05-30T18:33:01.162Z,20.74
2017-05-30T18:35:28.119Z,22.40
2017-05-30T18:37:54.497Z,19.08
2017-05-30T18:40:20.906Z,20.20
2017-05-30T18:42:47.598Z,19.26
2017-05-30T18:45:13.987Z,15.72
2017-05-30T18:47:40.331Z,17.38
2017-05-30T18:50:06.718Z,21.98
2017-05-30T18:52:33.062Z,15.46
2017-05-30T18:54:59.484Z,15.84
2017-05-30T18:57:25.823Z,14.84
2017-05-30T18:59:52.350Z,14.98
2017-05-30T19:02:18.765Z,14.96
2017-05-30T19:04:45.137Z,15.32
2017-05-30T19:07:12.209Z,13.80
2017-05-30T19:09:38.650Z,14.64
2017-05-30T19:12:05.034Z,14.36
2017-05-30T19:14:31.390Z,16.92
2017-05-30T19:16:57.760Z,15.40
2017-05-30T19:19:24.089Z,13.58
2017-05-30T19:21:50.446Z,13.96
2017-05-30T19:24:16.806Z,13.38
2017-05-30T19:26:43.700Z,12.88
2017-05-30T19:29:10.238Z,14.72
2017-05-30T19:31:36.773Z,12.08
2017-05-30T19:34:03.168Z,11.94
2017-05-30T19:36:29.630Z,15.82
2017-05-30T19:38:56.345Z,11.54
2017-05-30T19:41:23.317Z,12.76
2017-05-30T19:43:49.813Z,11.16
2017-05-30T19:46:16.160Z,11.38
2017-05-30T19:48:43.261Z,12.60
2017-05-30T19:51:09.677Z,11.36
2017-05-30T19:53:36.027Z,10.84
2017-05-30T19:56:02.367Z,9.58
2017-05-30T19:58:28.703Z,10.16
2017-05-30T20:00:55.092Z,10.06
2017-05-30T20:03:21.500Z,8.54
2017-05-30T20:05:47.855Z,12.22
2017-05-30T20:08:14.229Z,9.32
2017-05-30T20:10:40.618Z,8.82
2017-05-30T20:13:06.948Z,10.40
2017-05-30T20:15:33.341Z,11.18
2017-05-30T20:18:00.495Z,10.08
2017-05-30T20:20:27.199Z,8.82
2017-05-30T20:22:53.648Z,10.54
2017-05-30T20:25:20.750Z,9.26
2017-05-30T20:27:47.117Z,10.84
2017-05-30T20:30:13.515Z,10.76
2017-05-30T20:32:39.845Z,9.84
2017-05-30T20:35:06.216Z,9.84
2017-05-30T20:37:32.653Z,14.98
2017-05-30T20:39:59.026Z,9.50
2017-05-30T20:42:25.470Z,8.78
2017-05-30T20:44:51.834Z,13.64
2017-05-30T20:47:18.179Z,11.08
2017-05-30T20:49:44.582Z,11.20
2017-05-30T20:52:10.959Z,8.92
2017-05-30T20:54:37.320Z,10.10
2017-05-30T20:57:04.271Z,8.64
2017-05-30T20:59:30.655Z,11.24
2017-05-30T21:01:57.023Z,9.36
2017-05-30T21:04:23.346Z,8.26
2017-05-30T21:06:49.694Z,8.50
2017-05-30T21:09:16.129Z,10.02
2017-05-30T21:11:42.456Z,9.20
2017-05-30T21:14:08.798Z,10.32
2017-05-30T21:16:35.148Z,10.04
2017-05-30T21:19:02.737Z,8.10
2017-05-30T21:21:29.115Z,12.06
2017-05-30T21:23:55.443Z,10.56
2017-05-30T21:26:21.828Z,7.80
2017-05-30T21:28:48.151Z,11.32
2017-05-30T21:31:14.543Z,8.78
2017-05-30T21:33:40.896Z,8.82
2017-05-30T21:36:07.235Z,10.50
2017-05-30T21:38:33.645Z,8.44
2017-05-30T21:41:00.005Z,12.42
2017-05-30T21:43:26.326Z,7.50
2017-05-30T21:45:52.751Z,11.52
2017-05-30T21:48:19.084Z,8.44
2017-05-30T21:50:45.419Z,9.76
2017-05-30T21:53:11.796Z,8.82
2017-05-30T21:55:38.190Z,8.40
2017-05-30T21:58:04.518Z,7.76
2017-05-30T22:00:30.837Z,6.72
2017-05-30T22:02:58.334Z,8.48
2017-05-30T22:05:24.719Z,7.90
2017-05-30T22:07:51.082Z,7.50
2017-05-30T22:10:17.408Z,5.90
2017-05-30T22:12:43.753Z,7.98
2017-05-30T22:15:10.087Z,5.62
2017-05-30T22:17:36.549Z,6.50
2017-05-30T22:20:02.985Z,7.98
2017-05-30T22:22:29.335Z,5.96
2017-05-30T22:24:55.670Z,6.14
2017-05-30T22:27:22.000Z,5.78
2017-05-30T22:29:48.369Z,6.52
2017-05-30T22:32:14.694Z,5.26
2017-05-30T22:34:41.013Z,5.26
2017-05-30T22:37:07.347Z,4.98
2017-05-30T22:39:33.719Z,8.18
2017-05-30T22:42:00.058Z,5.60
2017-05-30T22:44:26.403Z,6.12
2017-05-30T22:46:52.752Z,5.62
2017-05-30T22:49:19.129Z,5.94
2017-05-30T22:51:45.453Z,5.50
2017-05-30T22:54:11.773Z,4.84
2017-05-30T22:56:38.201Z,7.12
2017-05-30T22:59:04.520Z,6.20
2017-05-30T23:01:30.884Z,7.92
2017-05-30T23:03:57.212Z,5.26
2017-05-30T23:06:23.532Z,5.76
2017-05-30T23:08:49.876Z,5.54
2017-05-30T23:11:16.213Z,4.88
2017-05-30T23:13:42.553Z,7.20
2017-05-30T23:16:08.930Z,5.10
2017-05-30T23:18:35.273Z,5.76
2017-05-30T23:21:01.606Z,4.84
2017-05-30T23:23:27.910Z,5.54
2017-05-30T23:25:54.255Z,8.16
2017-05-30T23:28:20.632Z,5.16
2017-05-30T23:30:46.935Z,6.40
2017-05-30T23:33:13.268Z,6.80
2017-05-30T23:35:39.666Z,6.20
2017-05-30T23:38:05.970Z,5.04
2017-05-30T23:40:32.335Z,7.14
2017-05-30T23:42:58.744Z,7.50
2017-05-30T23:45:25.171Z,5.70
2017-05-30T23:47:51.805Z,5.52
2017-05-30T23:50:18.185Z,6.18
2017-05-30T23:52:44.591Z,5.34
2017-05-30T23:55:10.996Z,8.50
2017-05-30T23:57:37.638Z,5.72
